createdAt,value
2022-08-12T00:00:49.062Z,80.03
2022-08-12T00:03:34.707Z,79.99
2022-08-12T00:06:21.680Z,81.04
2022-08-12T00:09:07.400Z,80.20
2022-08-12T00:11:54.293Z,81.30
2022-08-12T00:14:40.022Z,80.65
2022-08-12T00:17:26.063Z,80.99
2022-08-12T00:20:12.131Z,81.21
2022-08-12T00:22:59.125Z,80.79
2022-08-12T00:26:23.316Z,80.82
2022-08-12T00:29:13.478Z,81.20
2022-08-12T00:32:00.334Z,81.27
2022-08-12T00:34:46.046Z,81.57
2022-08-12T00:37:34.728Z,81.95
2022-08-12T00:40:23.164Z,82.19
2022-08-12T00:42:51.559Z,82.27
2022-08-12T00:45:19.581Z,83.28
2022-08-12T00:47:46.948Z,82.84
2022-08-12T00:50:19.473Z,83.00
2022-08-12T00:52:49.818Z,83.44
2022-08-12T00:55:17.868Z,82.94
2022-08-12T00:57:48.580Z,82.99
2022-08-12T01:00:22.120Z,83.25
2022-08-12T01:02:57.592Z,83.71
2022-08-12T01:05:44.810Z,83.91
2022-08-12T01:08:30.227Z,84.91
2022-08-12T01:11:16.273Z,85.00
2022-08-12T01:13:52.846Z,85.35
2022-08-12T01:16:22.774Z,86.34
2022-08-12T01:18:51.860Z,85.75
2022-08-12T01:21:27.872Z,86.90
2022-08-12T01:24:31.180Z,86.00
2022-08-12T01:26:59.956Z,86.20
2022-08-12T01:29:33.031Z,86.98
2022-08-12T01:32:06.471Z,86.93
2022-08-12T01:34:38.718Z,86.97
2022-08-12T01:37:08.550Z,87.19
2022-08-12T01:40:34.371Z,87.86
2022-08-12T01:42:43.571Z,88.18
2022-08-12T01:45:12.589Z,87.69
2022-08-12T01:48:00.886Z,88.51
2022-08-12T01:50:46.242Z,88.71
2022-08-12T01:53:16.121Z,89.87
2022-08-12T01:55:47.211Z,90.32
2022-08-12T01:58:17.365Z,89.57
2022-08-12T02:01:06.821Z,90.19
2022-08-12T02:04:10.931Z,89.95
2022-08-12T02:06:59.050Z,90.41
2022-08-12T02:10:50.875Z,89.90
2022-08-12T02:13:49.563Z,90.78
2022-08-12T02:16:53.769Z,90.46
2022-08-12T02:19:56.789Z,91.09
2022-08-12T02:22:39.025Z,90.75
2022-08-12T02:25:23.081Z,90.93
2022-08-12T02:27:52.741Z,91.38
2022-08-12T02:30:41.229Z,91.25
2022-08-12T02:33:11.366Z,92.15
2022-08-12T02:35:39.836Z,91.15
2022-08-12T02:38:11.684Z,91.14
2022-08-12T02:40:40.795Z,92.34
2022-08-12T02:43:45.269Z,92.89
2022-08-12T02:46:15.930Z,93.02
2022-08-12T02:48:51.631Z,93.10
2022-08-12T02:51:23.733Z,92.19
2022-08-12T02:54:04.862Z,92.57
2022-08-12T02:56:38.131Z,93.17
2022-08-12T02:59:06.907Z,93.00
2022-08-12T03:01:47.463Z,92.90
2022-08-12T03:04:43.878Z,94.59
2022-08-12T03:07:20.384Z,94.08
2022-08-12T03:10:03.435Z,93.47
2022-08-12T03:12:47.462Z,93.43
2022-08-12T03:15:17.752Z,94.03
2022-08-12T03:18:25.949Z,93.29
2022-08-12T03:20:42.787Z,94.95
2022-08-12T03:23:17.372Z,93.94
2022-08-12T03:25:59.182Z,94.16
2022-08-12T03:28:47.104Z,94.89
2022-08-12T03:31:13.963Z,94.89
2022-08-12T03:33:48.203Z,94.47
2022-08-12T03:36:33.627Z,94.38
2022-08-12T03:39:17.221Z,94.43
2022-08-12T03:41:58.213Z,95.67
2022-08-12T03:45:06.769Z,94.95
2022-08-12T03:47:51.774Z,94.74
2022-08-12T03:50:38.209Z,96.02
2022-08-12T03:53:27.976Z,95.87
2022-08-12T03:56:14.099Z,96.60
2022-08-12T03:58:59.902Z,95.73
2022-08-12T04:02:46.908Z,96.45
2022-08-12T04:05:13.544Z,96.71
2022-08-12T04:07:57.968Z,96.67
2022-08-12T04:10:48.755Z,96.23
2022-08-12T04:13:25.666Z,96.62
2022-08-12T04:15:53.138Z,97.09
2022-08-12T04:18:20.717Z,97.15
2022-08-12T04:20:48.902Z,97.39
2022-08-12T04:23:17.005Z,97.65
2022-08-12T04:25:44.603Z,98.19
2022-08-12T04:28:13.619Z,97.89
2022-08-12T04:30:40.995Z,97.35
2022-08-12T04:33:10.066Z,97.79
2022-08-12T04:35:37.395Z,98.24
2022-08-12T04:38:05.418Z,98.13
2022-08-12T04:40:33.952Z,98.65
2022-08-12T04:43:01.807Z,98.89
2022-08-12T04:45:29.579Z,98.81
2022-08-12T04:47:56.875Z,98.53
2022-08-12T04:50:33.889Z,99.22
2022-08-12T04:53:08.345Z,98.95
2022-08-12T04:55:38.972Z,98.75
2022-08-12T04:58:07.434Z,99.91
2022-08-12T05:00:35.392Z,100.00
2022-08-12T05:03:02.349Z,99.68
2022-08-12T05:05:35.218Z,100.00
2022-08-12T05:08:02.905Z,99.57
2022-08-12T05:10:33.968Z,99.13
2022-08-12T05:13:07.334Z,98.85
2022-08-12T05:16:02.634Z,99.81
2022-08-12T05:18:25.356Z,98.89
2022-08-12T05:20:56.820Z,99.36
2022-08-12T05:23:23.753Z,99.72
2022-08-12T05:25:57.211Z,99.32
2022-08-12T05:28:27.463Z,98.41
2022-08-12T05:31:42.438Z,98.80
2022-08-12T05:34:05.943Z,98.82
2022-08-12T05:36:33.248Z,98.33
2022-08-12T05:39:00.566Z,98.50
2022-08-12T05:41:32.909Z,98.54
2022-08-12T05:44:05.207Z,98.40
2022-08-12T05:46:33.408Z,98.89
2022-08-12T05:49:00.972Z,98.33
2022-08-12T05:51:40.421Z,97.58
2022-08-12T05:54:08.867Z,96.93
2022-08-12T05:56:37.654Z,97.16
2022-08-12T05:59:09.482Z,96.52
2022-08-12T06:02:10.329Z,96.33
2022-08-12T06:04:30.217Z,94.91
2022-08-12T06:06:57.053Z,94.46
2022-08-12T06:09:26.527Z,92.90
2022-08-12T06:12:04.805Z,90.78
2022-08-12T06:14:37.917Z,87.88
2022-08-12T06:17:07.990Z,86.45
2022-08-12T06:20:27.263Z,83.50
2022-08-12T06:22:22.162Z,81.78
2022-08-12T06:24:49.954Z,82.68
2022-08-12T06:27:18.887Z,81.51
2022-08-12T06:30:06.940Z,79.36
2022-08-12T06:32:33.082Z,78.48
2022-08-12T06:35:27.016Z,78.63
2022-08-12T06:37:56.715Z,78.00
2022-08-12T06:40:44.549Z,77.28
2022-08-12T06:43:13.252Z,75.92
2022-08-12T06:45:49.652Z,75.12
2022-08-12T06:48:17.452Z,75.29
2022-08-12T06:50:44.589Z,74.01
2022-08-12T06:53:11.693Z,73.19
2022-08-12T06:58:37.501Z,71.77
2022-08-12T07:05:36.646Z,69.86
2022-08-12T07:08:37.709Z,68.77
2022-08-12T07:11:07.318Z,68.86
2022-08-12T07:14:02.225Z,68.71
2022-08-12T07:16:49.372Z,67.21
2022-08-12T07:19:17.362Z,65.06
2022-08-12T07:21:58.996Z,64.93
2022-08-12T07:24:27.903Z,64.03
2022-08-12T07:26:56.870Z,63.95
2022-08-12T07:29:58.250Z,63.24
2022-08-12T07:32:13.931Z,62.19
2022-08-12T07:34:42.443Z,61.93
2022-08-12T07:37:09.920Z,62.48
2022-08-12T07:39:36.848Z,61.95
2022-08-12T07:42:17.225Z,60.58
2022-08-12T07:44:45.058Z,60.02
2022-08-12T07:47:12.933Z,59.67
2022-08-12T07:50:05.404Z,59.31
2022-08-12T07:52:31.038Z,59.47
2022-08-12T07:54:59.681Z,59.60
2022-08-12T07:57:26.494Z,58.24
2022-08-12T07:59:55.846Z,57.76
2022-08-12T08:02:26.612Z,58.48
2022-08-12T08:04:59.259Z,58.45
2022-08-12T08:07:30.799Z,57.58
2022-08-12T08:10:01.510Z,57.67
2022-08-12T08:12:48.124Z,56.54
2022-08-12T08:15:16.337Z,56.54
2022-08-12T08:18:03.495Z,56.79
2022-08-12T08:20:38.254Z,56.75
2022-08-12T08:23:09.163Z,56.63
2022-08-12T08:25:39.009Z,56.93
2022-08-12T08:28:09.414Z,56.38
2022-08-12T08:30:56.953Z,56.45
2022-08-12T08:34:04.780Z,55.60
2022-08-12T08:36:29.420Z,55.79
2022-08-12T08:38:58.682Z,55.96
2022-08-12T08:42:16.430Z,55.24
2022-08-12T08:44:43.889Z,55.39
2022-08-12T08:47:20.013Z,55.47
2022-08-12T08:49:47.100Z,55.41
2022-08-12T08:52:39.032Z,56.21
2022-08-12T08:56:03.224Z,55.40
2022-08-12T08:58:28.425Z,55.01
2022-08-12T09:01:03.041Z,55.03
2022-08-12T09:05:09.842Z,55.18
2022-08-12T09:06:18.136Z,54.61
2022-08-12T09:09:13.143Z,53.99
2022-08-12T09:12:11.967Z,53.85
2022-08-12T09:14:50.995Z,54.32
2022-08-12T09:17:22.594Z,54.12
2022-08-12T09:19:56.866Z,53.48
2022-08-12T09:22:28.496Z,53.87
2022-08-12T09:24:59.921Z,52.84
2022-08-12T09:28:03.565Z,51.56
2022-08-12T09:30:16.240Z,52.25
2022-08-12T09:33:03.991Z,51.04
2022-08-12T09:35:42.886Z,51.76
2022-08-12T09:38:28.329Z,50.85
2022-08-12T09:42:08.636Z,51.81
2022-08-12T09:44:05.103Z,51.60
2022-08-12T09:46:32.391Z,50.67
2022-08-12T09:49:04.133Z,50.74
2022-08-12T09:51:44.098Z,49.90
2022-08-12T09:54:33.862Z,49.46
2022-08-12T09:57:03.888Z,49.57
2022-08-12T10:00:16.849Z,49.10
2022-08-12T10:02:44.629Z,48.76
2022-08-12T10:05:22.835Z,47.45
2022-08-12T10:08:11.421Z,47.00
2022-08-12T10:11:01.545Z,48.04
2022-08-12T10:13:44.453Z,46.39
2022-08-12T10:16:22.316Z,46.16
2022-08-12T10:18:53.922Z,46.81
2022-08-12T10:21:23.364Z,46.23
2022-08-12T10:23:55.213Z,46.55
2022-08-12T10:26:44.573Z,46.75
2022-08-12T10:30:02.969Z,46.80
2022-08-12T10:32:45.135Z,45.59
2022-08-12T10:35:09.511Z,45.68
2022-08-12T10:38:34.247Z,45.68
2022-08-12T10:40:31.667Z,45.74
2022-08-12T10:43:24.102Z,44.43
2022-08-12T10:45:54.279Z,43.83
2022-08-12T10:48:26.793Z,42.54
2022-08-12T10:51:01.500Z,41.92
2022-08-12T10:53:43.924Z,42.63
2022-08-12T10:56:17.412Z,43.77
2022-08-12T10:58:47.966Z,41.73
2022-08-12T11:01:50.614Z,39.05
2022-08-12T11:04:27.267Z,39.47
2022-08-12T11:07:10.117Z,39.13
2022-08-12T11:10:00.406Z,41.61
2022-08-12T11:12:54.524Z,39.60
2022-08-12T11:15:32.838Z,39.85
2022-08-12T11:18:12.271Z,38.96
2022-08-12T11:20:48.383Z,38.94
2022-08-12T11:23:25.787Z,39.64
2022-08-12T11:26:06.011Z,38.62
2022-08-12T11:28:37.500Z,37.91
2022-08-12T11:31:09.930Z,38.09
2022-08-12T11:34:06.274Z,37.86
2022-08-12T11:36:28.777Z,39.10
2022-08-12T11:38:56.200Z,39.46
2022-08-12T11:41:27.904Z,40.53
2022-08-12T11:44:20.193Z,41.34
2022-08-12T11:46:51.374Z,40.48
2022-08-12T11:49:31.744Z,40.35
2022-08-12T11:52:02.146Z,38.72
2022-08-12T11:54:30.367Z,36.34
2022-08-12T11:57:02.072Z,37.89
2022-08-12T12:02:20.579Z,39.20
2022-08-12T12:04:52.087Z,36.75
2022-08-12T12:07:22.238Z,37.44
2022-08-12T12:09:52.365Z,38.03
2022-08-12T12:12:22.357Z,38.42
2022-08-12T12:14:55.028Z,37.45
2022-08-12T12:17:26.757Z,37.91
2022-08-12T12:20:11.602Z,37.93
2022-08-12T12:22:41.175Z,37.93
2022-08-12T12:25:13.055Z,38.27
2022-08-12T12:28:04.139Z,37.69
2022-08-12T12:30:32.710Z,39.00
2022-08-12T12:32:59.660Z,35.95
2022-08-12T12:36:05.954Z,36.45
2022-08-12T12:38:13.772Z,36.22
2022-08-12T12:40:50.324Z,35.53
2022-08-12T12:43:29.074Z,35.88
2022-08-12T12:46:05.662Z,36.95
2022-08-12T12:48:32.604Z,37.28
2022-08-12T12:51:48.299Z,36.97
2022-08-12T12:54:06.491Z,37.18
2022-08-12T12:56:40.636Z,37.30
2022-08-12T12:59:33.851Z,37.17
2022-08-12T13:01:55.546Z,36.94
2022-08-12T13:04:22.565Z,36.82
2022-08-12T13:06:52.224Z,36.69
2022-08-12T13:09:22.241Z,36.29
2022-08-12T13:11:53.108Z,37.32
2022-08-12T13:14:28.275Z,37.37
2022-08-12T13:16:57.685Z,36.63
2022-08-12T13:19:38.663Z,36.64
2022-08-12T13:22:20.745Z,36.37
2022-08-12T13:24:56.291Z,36.53
2022-08-12T13:27:35.360Z,35.66
2022-08-12T13:30:11.123Z,37.80
2022-08-12T13:32:42.263Z,36.15
2022-08-12T13:35:20.135Z,36.17
2022-08-12T13:37:58.291Z,34.91
2022-08-12T13:40:27.312Z,35.42
2022-08-12T13:43:00.386Z,35.53
2022-08-12T13:45:29.437Z,36.80
2022-08-12T13:47:56.426Z,35.21
2022-08-12T13:50:36.507Z,34.66
2022-08-12T13:53:24.515Z,33.35
2022-08-12T13:55:59.658Z,35.11
2022-08-12T13:58:30.344Z,33.49
2022-08-12T14:00:58.521Z,32.38
2022-08-12T14:03:49.785Z,34.43
2022-08-12T14:06:16.304Z,32.21
2022-08-12T14:08:44.600Z,35.57
2022-08-12T14:11:17.416Z,35.71
2022-08-12T14:14:04.563Z,34.05
2022-08-12T14:16:37.597Z,31.77
2022-08-12T14:19:22.366Z,32.53
2022-08-12T14:22:00.827Z,34.48
2022-08-12T14:24:35.684Z,34.47
2022-08-12T14:27:08.969Z,31.51
2022-08-12T14:30:05.767Z,32.85
2022-08-12T14:32:35.579Z,31.95
2022-08-12T14:35:05.303Z,33.93
2022-08-12T14:37:56.473Z,32.04
2022-08-12T14:40:27.600Z,31.67
2022-08-12T14:42:56.866Z,32.35
2022-08-12T14:45:37.184Z,33.23
2022-08-12T14:48:14.893Z,33.29
2022-08-12T14:52:10.359Z,34.77
2022-08-12T14:55:36.188Z,36.20
2022-08-12T14:59:57.398Z,35.50
2022-08-12T15:02:19.684Z,33.21
2022-08-12T15:04:52.659Z,34.89
2022-08-12T15:07:33.609Z,34.57
2022-08-12T15:10:07.360Z,35.33
2022-08-12T15:12:34.515Z,33.87
2022-08-12T15:15:02.773Z,35.48
2022-08-12T15:17:38.434Z,35.08
2022-08-12T15:20:30.909Z,34.09
2022-08-12T15:22:55.135Z,33.63
2022-08-12T15:25:22.722Z,36.51
2022-08-12T15:28:05.537Z,32.95
2022-08-12T15:30:37.224Z,33.14
2022-08-12T15:33:12.619Z,32.16
2022-08-12T15:35:52.018Z,32.56
2022-08-12T15:38:26.003Z,31.44
2022-08-12T15:40:54.657Z,30.74
2022-08-12T15:43:51.672Z,31.06
2022-08-12T15:46:15.554Z,31.99
2022-08-12T15:48:46.875Z,30.38
2022-08-12T15:51:59.418Z,31.85
2022-08-12T15:54:33.129Z,31.38
2022-08-12T15:57:08.317Z,33.00
2022-08-12T16:00:00.839Z,35.65
2022-08-12T16:02:29.910Z,34.45
2022-08-12T16:04:57.284Z,34.34
2022-08-12T16:07:29.742Z,33.10
2022-08-12T16:10:05.390Z,31.56
2022-08-12T16:12:39.663Z,31.38
2022-08-12T16:15:08.379Z,33.07
2022-08-12T16:18:09.011Z,32.54
2022-08-12T16:20:33.195Z,31.24
2022-08-12T16:23:50.946Z,31.72
2022-08-12T16:26:05.277Z,33.07
2022-08-12T16:28:34.132Z,32.54
2022-08-12T16:31:02.207Z,32.32
2022-08-12T16:33:59.950Z,32.78
2022-08-12T16:36:25.210Z,32.67
2022-08-12T16:38:52.196Z,32.69
2022-08-12T16:41:19.115Z,31.18
2022-08-12T16:43:47.812Z,31.91
2022-08-12T16:46:31.979Z,31.91
2022-08-12T16:49:04.179Z,31.49
2022-08-12T16:51:40.532Z,32.82
2022-08-12T16:54:14.196Z,32.50
2022-08-12T16:56:54.545Z,32.57
2022-08-12T16:59:22.731Z,33.99
2022-08-12T17:01:51.681Z,31.43
2022-08-12T17:04:19.835Z,31.48
2022-08-12T17:06:52.747Z,33.72
2022-08-12T17:09:20.301Z,33.73
2022-08-12T17:11:49.300Z,34.24
2022-08-12T17:14:23.083Z,33.15
2022-08-12T17:16:52.095Z,33.54
2022-08-12T17:20:02.497Z,32.06
2022-08-12T17:22:09.918Z,32.84
2022-08-12T17:24:44.006Z,32.33
2022-08-12T17:27:22.312Z,32.35
2022-08-12T17:30:03.227Z,32.23
2022-08-12T17:32:33.746Z,33.52
2022-08-12T17:35:20.629Z,31.83
2022-08-12T17:37:48.781Z,34.73
2022-08-12T17:40:20.978Z,33.02
2022-08-12T17:43:57.195Z,33.17
2022-08-12T17:45:56.478Z,34.19
2022-08-12T17:48:34.822Z,35.20
2022-08-12T17:51:15.332Z,32.52
2022-08-12T17:54:11.615Z,32.61
2022-08-12T17:56:32.813Z,32.65
2022-08-12T17:59:01.446Z,32.71
2022-08-12T18:01:30.184Z,32.94
2022-08-12T18:04:21.392Z,33.84
2022-08-12T18:06:52.833Z,33.38
2022-08-12T18:09:24.263Z,34.12
2022-08-12T18:12:11.518Z,34.29
2022-08-12T18:14:41.678Z,34.62
2022-08-12T18:17:16.336Z,35.46
2022-08-12T18:20:04.995Z,36.13
2022-08-12T18:22:32.930Z,36.93
2022-08-12T18:25:04.940Z,37.18
2022-08-12T18:27:46.820Z,37.21
2022-08-12T18:30:20.276Z,38.04
2022-08-12T18:33:04.988Z,38.17
2022-08-12T18:35:47.557Z,38.09
2022-08-12T18:38:22.719Z,39.24
2022-08-12T18:41:20.977Z,39.20
2022-08-12T18:43:59.167Z,39.94
2022-08-12T18:46:38.732Z,40.01
2022-08-12T18:49:16.761Z,40.22
2022-08-12T18:51:55.404Z,40.21
2022-08-12T18:54:35.526Z,40.80
2022-08-12T18:57:15.353Z,40.79
2022-08-12T19:00:00.840Z,41.57
2022-08-12T19:02:36.358Z,41.07
2022-08-12T19:05:11.731Z,41.46
2022-08-12T19:07:49.801Z,41.77
2022-08-12T19:10:25.578Z,42.05
2022-08-12T19:13:18.578Z,42.15
2022-08-12T19:15:50.427Z,42.06
2022-08-12T19:18:22.047Z,42.21
2022-08-12T19:20:50.386Z,42.19
2022-08-12T19:23:21.075Z,41.98
2022-08-12T19:26:01.206Z,42.35
2022-08-12T19:28:36.386Z,42.00
2022-08-12T19:31:55.960Z,41.75
2022-08-12T19:36:08.209Z,42.19
2022-08-12T19:38:06.615Z,42.53
2022-08-12T19:40:32.540Z,42.48
2022-08-12T19:43:18.859Z,42.67
2022-08-12T19:45:50.614Z,43.02
2022-08-12T19:48:22.876Z,42.88
2022-08-12T19:50:53.061Z,42.35
2022-08-12T19:53:24.312Z,42.34
2022-08-12T19:55:57.409Z,42.40
2022-08-12T19:58:25.005Z,42.60
2022-08-12T20:00:54.441Z,43.27
2022-08-12T20:03:38.879Z,43.03
2022-08-12T20:06:15.493Z,43.37
2022-08-12T20:08:49.774Z,43.40
2022-08-12T20:12:10.325Z,43.33
2022-08-12T20:14:10.337Z,43.71
2022-08-12T20:16:56.507Z,43.52
2022-08-12T20:20:16.571Z,43.57
2022-08-12T20:22:31.579Z,43.91
2022-08-12T20:25:10.652Z,44.16
2022-08-12T20:28:05.260Z,43.89
2022-08-12T20:30:37.633Z,44.53
2022-08-12T20:33:23.047Z,44.10
2022-08-12T20:36:14.047Z,44.22
2022-08-12T20:38:46.868Z,44.90
2022-08-12T20:41:17.626Z,44.72
2022-08-12T20:43:49.434Z,45.24
2022-08-12T20:46:19.986Z,45.84
2022-08-12T20:48:54.721Z,45.67
2022-08-12T20:51:27.590Z,46.36
2022-08-12T20:53:58.871Z,46.06
2022-08-12T20:56:35.181Z,46.44
2022-08-12T20:59:06.336Z,46.32
2022-08-12T21:01:46.651Z,46.43
2022-08-12T21:04:35.264Z,46.87
2022-08-12T21:07:09.607Z,46.98
2022-08-12T21:09:49.548Z,47.60
2022-08-12T21:12:28.572Z,47.94
2022-08-12T21:15:23.099Z,47.85
2022-08-12T21:18:11.663Z,48.05
2022-08-12T21:20:54.542Z,48.62
2022-08-12T21:23:22.918Z,48.28
2022-08-12T21:25:52.728Z,48.73
2022-08-12T21:28:21.164Z,48.86
2022-08-12T21:31:10.444Z,49.46
2022-08-12T21:34:06.317Z,49.70
2022-08-12T21:36:34.985Z,49.73
2022-08-12T21:39:35.853Z,50.38
2022-08-12T21:42:06.893Z,50.48
2022-08-12T21:45:45.502Z,50.31
2022-08-12T21:47:23.231Z,50.67
2022-08-12T21:50:03.012Z,50.99
2022-08-12T21:52:40.781Z,51.58
2022-08-12T21:55:17.232Z,51.06
2022-08-12T21:57:51.335Z,51.27
2022-08-12T22:00:32.075Z,51.87
2022-08-12T22:04:03.289Z,51.77
2022-08-12T22:06:26.405Z,52.33
2022-08-12T22:09:02.299Z,52.38
2022-08-12T22:11:42.379Z,52.60
2022-08-12T22:14:21.639Z,52.88
2022-08-12T22:16:53.539Z,52.93
2022-08-12T22:19:22.724Z,53.23
2022-08-12T22:21:53.506Z,53.14
2022-08-12T22:24:27.095Z,53.23
2022-08-12T22:27:07.938Z,53.27
2022-08-12T22:30:08.574Z,53.59
2022-08-12T22:32:42.132Z,53.60
2022-08-12T22:35:47.539Z,54.19
2022-08-12T22:38:19.998Z,54.71
2022-08-12T22:40:55.341Z,55.11
2022-08-12T22:44:00.765Z,55.51
2022-08-12T22:46:33.497Z,55.38
2022-08-12T22:49:00.498Z,55.80
2022-08-12T22:51:59.896Z,55.04
2022-08-12T22:54:35.921Z,55.00
2022-08-12T22:57:05.286Z,55.98
2022-08-12T22:59:55.844Z,55.79
2022-08-12T23:02:34.444Z,56.39
2022-08-12T23:05:01.373Z,56.52
2022-08-12T23:07:36.130Z,56.91
2022-08-12T23:10:14.950Z,56.86
2022-08-12T23:13:05.277Z,57.07
2022-08-12T23:15:32.728Z,57.95
2022-08-12T23:17:59.681Z,58.04
2022-08-12T23:20:27.740Z,58.01
2022-08-12T23:23:02.880Z,57.86
2022-08-12T23:25:55.593Z,58.37
2022-08-12T23:28:42.377Z,58.51
2022-08-12T23:31:09.800Z,58.78
2022-08-12T23:34:01.446Z,58.68
2022-08-12T23:36:39.245Z,58.25
2022-08-12T23:40:14.483Z,58.84
2022-08-12T23:42:16.622Z,58.92
2022-08-12T23:44:46.110Z,59.19
2022-08-12T23:47:14.292Z,59.40
2022-08-12T23:49:57.101Z,59.31
2022-08-12T23:52:28.470Z,59.69
2022-08-12T23:55:23.524Z,60.02
2022-08-12T23:58:21.165Z,59.95
